LXGB/GIB METAR and TAF weather

Enter ICAO airport designator
Station Type Date Time Source
LXGB METAR 2020/09/18 16:50 UTC NOAA

LXGB 181650Z 24014KT 9999 FEW034 25/18 Q1015 NOSIG RMK BLU BLU


Station Type Date Time Source
LXGB Decoded METAR 2020/09/18 16:50 UTC NOAA

Gibraltar, Gibraltar (LXGB) 36-09N 005-21W 0M
Sep 18, 2020 - 12:50 PM EDT / 2020.09.18 1650 UTC
Wind: from the WSW (240 degrees) at 16 MPH (14 KT):0
Visibility: greater than 7 mile(s):0
Sky conditions: mostly clear
Temperature: 77 F (25 C)
Dew Point: 64 F (18 C)
Relative Humidity: 65%
Pressure (altimeter): 29.97 in. Hg (1015 hPa)
ob: LXGB 181650Z 24014KT 9999 FEW034 25/18 Q1015 NOSIG RMK BLU BLU
cycle: 17

Station Type Date Time Source
LXGB TAF 2020/07/15 18:37 UTC NOAA

TAF LXGB 150530Z 1418/1523 CNL

Example: see airport list